sensor_id;sensor_type;location;lat;lon;timestamp;P1;durP1;ratioP1;P2;durP2;ratioP2
23185;SDS011;11761;51.324;4.590;2022-11-14T00:00:45;24.60;;;12.88;;
23185;SDS011;11761;51.324;4.590;2022-11-14T00:03:11;25.85;;;12.48;;
23185;SDS011;11761;51.324;4.590;2022-11-14T00:05:41;20.58;;;11.27;;
23185;SDS011;11761;51.324;4.590;2022-11-14T00:08:13;21.95;;;11.48;;
23185;SDS011;11761;51.324;4.590;2022-11-14T00:10:40;23.50;;;12.35;;
23185;SDS011;11761;51.324;4.590;2022-11-14T00:13:07;24.73;;;12.18;;
23185;SDS011;11761;51.324;4.590;2022-11-14T00:15:33;22.60;;;11.50;;
23185;SDS011;11761;51.324;4.590;2022-11-14T00:17:59;24.08;;;12.55;;
23185;SDS011;11761;51.324;4.590;2022-11-14T00:20:25;24.65;;;12.32;;
23185;SDS011;11761;51.324;4.590;2022-11-14T00:22:51;20.50;;;11.63;;
23185;SDS011;11761;51.324;4.590;2022-11-14T00:25:17;20.45;;;11.18;;
23185;SDS011;11761;51.324;4.590;2022-11-14T00:27:43;20.73;;;11.27;;
23185;SDS011;11761;51.324;4.590;2022-11-14T00:30:09;22.55;;;10.50;;
23185;SDS011;11761;51.324;4.590;2022-11-14T00:32:36;19.30;;;10.82;;
23185;SDS011;11761;51.324;4.590;2022-11-14T00:35:02;27.63;;;12.60;;
23185;SDS011;11761;51.324;4.590;2022-11-14T00:37:28;20.08;;;11.45;;
23185;SDS011;11761;51.324;4.590;2022-11-14T00:39:54;18.08;;;10.07;;
23185;SDS011;11761;51.324;4.590;2022-11-14T00:42:20;17.67;;;10.00;;
23185;SDS011;11761;51.324;4.590;2022-11-14T00:44:46;30.98;;;11.70;;
23185;SDS011;11761;51.324;4.590;2022-11-14T00:47:12;31.95;;;13.30;;
23185;SDS011;11761;51.324;4.590;2022-11-14T00:49:38;26.38;;;12.75;;
23185;SDS011;11761;51.324;4.590;2022-11-14T00:52:04;33.20;;;14.73;;
23185;SDS011;11761;51.324;4.590;2022-11-14T00:54:30;27.98;;;13.63;;
23185;SDS011;11761;51.324;4.590;2022-11-14T00:56:57;29.27;;;13.90;;
23185;SDS011;11761;51.324;4.590;2022-11-14T00:59:23;37.45;;;15.85;;
23185;SDS011;11761;51.324;4.590;2022-11-14T01:01:49;37.38;;;17.02;;
23185;SDS011;11761;51.324;4.590;2022-11-14T01:04:15;55.15;;;20.77;;
23185;SDS011;11761;51.324;4.590;2022-11-14T01:06:41;48.80;;;18.23;;
23185;SDS011;11761;51.324;4.590;2022-11-14T01:09:07;34.88;;;16.95;;
23185;SDS011;11761;51.324;4.590;2022-11-14T01:11:33;40.40;;;18.95;;
23185;SDS011;11761;51.324;4.590;2022-11-14T01:13:59;32.30;;;15.10;;
23185;SDS011;11761;51.324;4.590;2022-11-14T01:16:25;44.58;;;17.95;;
23185;SDS011;11761;51.324;4.590;2022-11-14T01:18:52;29.08;;;14.23;;
23185;SDS011;11761;51.324;4.590;2022-11-14T01:21:18;30.88;;;15.45;;
23185;SDS011;11761;51.324;4.590;2022-11-14T01:23:45;37.78;;;15.73;;
23185;SDS011;11761;51.324;4.590;2022-11-14T01:26:11;39.95;;;16.65;;
23185;SDS011;11761;51.324;4.590;2022-11-14T01:28:39;36.35;;;16.10;;
23185;SDS011;11761;51.324;4.590;2022-11-14T01:31:09;31.35;;;14.90;;
23185;SDS011;11761;51.324;4.590;2022-11-14T01:33:37;34.75;;;14.13;;
23185;SDS011;11761;51.324;4.590;2022-11-14T01:36:04;34.97;;;13.95;;
23185;SDS011;11761;51.324;4.590;2022-11-14T01:38:31;34.88;;;14.82;;
23185;SDS011;11761;51.324;4.590;2022-11-14T01:40:57;36.72;;;14.70;;
23185;SDS011;11761;51.324;4.590;2022-11-14T01:43:25;31.50;;;13.98;;
23185;SDS011;11761;51.324;4.590;2022-11-14T01:45:57;29.48;;;14.48;;
23185;SDS011;11761;51.324;4.590;2022-11-14T01:48:39;24.83;;;12.60;;
23185;SDS011;11761;51.324;4.590;2022-11-14T01:53:40;23.58;;;10.50;;
23185;SDS011;11761;51.324;4.590;2022-11-14T01:56:09;18.33;;;10.15;;
23185;SDS011;11761;51.324;4.590;2022-11-14T01:58:39;19.55;;;9.63;;
23185;SDS011;11761;51.324;4.590;2022-11-14T02:01:08;17.85;;;9.50;;
23185;SDS011;11761;51.324;4.590;2022-11-14T02:03:35;15.50;;;8.45;;
23185;SDS011;11761;51.324;4.590;2022-11-14T02:06:04;14.13;;;8.25;;
23185;SDS011;11761;51.324;4.590;2022-11-14T02:08:32;14.77;;;8.43;;
23185;SDS011;11761;51.324;4.590;2022-11-14T02:10:59;16.55;;;8.10;;
23185;SDS011;11761;51.324;4.590;2022-11-14T02:13:25;18.15;;;9.02;;
23185;SDS011;11761;51.324;4.590;2022-11-14T02:15:51;14.10;;;7.72;;
23185;SDS011;11761;51.324;4.590;2022-11-14T02:18:18;14.88;;;8.50;;
23185;SDS011;11761;51.324;4.590;2022-11-14T02:20:44;15.52;;;8.27;;
23185;SDS011;11761;51.324;4.590;2022-11-14T02:23:10;17.85;;;8.18;;
23185;SDS011;11761;51.324;4.590;2022-11-14T02:25:37;13.68;;;7.25;;
23185;SDS011;11761;51.324;4.590;2022-11-14T02:28:04;14.45;;;7.60;;
23185;SDS011;11761;51.324;4.590;2022-11-14T02:30:34;11.02;;;7.22;;
23185;SDS011;11761;51.324;4.590;2022-11-14T02:33:00;13.55;;;7.45;;
23185;SDS011;11761;51.324;4.590;2022-11-14T02:35:26;13.63;;;7.55;;
23185;SDS011;11761;51.324;4.590;2022-11-14T02:37:52;10.52;;;6.53;;
23185;SDS011;11761;51.324;4.590;2022-11-14T02:40:18;15.98;;;8.05;;
23185;SDS011;11761;51.324;4.590;2022-11-14T02:42:44;12.18;;;7.00;;
23185;SDS011;11761;51.324;4.590;2022-11-14T02:45:10;10.68;;;6.95;;
23185;SDS011;11761;51.324;4.590;2022-11-14T02:47:37;12.85;;;7.00;;
23185;SDS011;11761;51.324;4.590;2022-11-14T02:50:03;16.15;;;8.05;;
23185;SDS011;11761;51.324;4.590;2022-11-14T02:52:30;12.23;;;7.20;;
23185;SDS011;11761;51.324;4.590;2022-11-14T02:54:56;10.93;;;6.57;;
23185;SDS011;11761;51.324;4.590;2022-11-14T02:57:22;13.00;;;7.18;;
23185;SDS011;11761;51.324;4.590;2022-11-14T02:59:48;10.52;;;6.60;;
23185;SDS011;11761;51.324;4.590;2022-11-14T03:02:14;13.75;;;7.97;;
23185;SDS011;11761;51.324;4.590;2022-11-14T03:04:40;13.70;;;7.72;;
23185;SDS011;11761;51.324;4.590;2022-11-14T03:07:06;11.07;;;6.97;;
23185;SDS011;11761;51.324;4.590;2022-11-14T03:09:33;12.05;;;6.97;;
23185;SDS011;11761;51.324;4.590;2022-11-14T03:11:59;11.43;;;7.03;;
23185;SDS011;11761;51.324;4.590;2022-11-14T03:14:25;15.43;;;7.05;;
23185;SDS011;11761;51.324;4.590;2022-11-14T03:16:53;11.85;;;7.30;;
23185;SDS011;11761;51.324;4.590;2022-11-14T03:19:19;12.88;;;7.20;;
23185;SDS011;11761;51.324;4.590;2022-11-14T03:21:45;12.20;;;6.93;;
23185;SDS011;11761;51.324;4.590;2022-11-14T03:24:11;12.27;;;7.40;;
23185;SDS011;11761;51.324;4.590;2022-11-14T03:26:38;12.38;;;7.30;;
23185;SDS011;11761;51.324;4.590;2022-11-14T03:29:04;12.38;;;6.93;;
23185;SDS011;11761;51.324;4.590;2022-11-14T03:31:30;14.70;;;7.85;;
23185;SDS011;11761;51.324;4.590;2022-11-14T03:33:56;10.27;;;6.43;;
23185;SDS011;11761;51.324;4.590;2022-11-14T03:36:22;11.07;;;6.88;;
23185;SDS011;11761;51.324;4.590;2022-11-14T03:38:48;11.23;;;6.70;;
23185;SDS011;11761;51.324;4.590;2022-11-14T03:41:15;13.52;;;7.35;;
23185;SDS011;11761;51.324;4.590;2022-11-14T03:43:41;12.95;;;7.30;;
23185;SDS011;11761;51.324;4.590;2022-11-14T03:46:07;14.50;;;7.60;;
23185;SDS011;11761;51.324;4.590;2022-11-14T03:48:33;11.23;;;7.43;;
23185;SDS011;11761;51.324;4.590;2022-11-14T03:50:59;13.70;;;7.18;;
23185;SDS011;11761;51.324;4.590;2022-11-14T03:53:25;12.27;;;6.85;;
23185;SDS011;11761;51.324;4.590;2022-11-14T03:55:52;11.00;;;6.75;;
23185;SDS011;11761;51.324;4.590;2022-11-14T03:58:19;12.27;;;7.35;;
23185;SDS011;11761;51.324;4.590;2022-11-14T04:00:45;11.45;;;7.68;;
23185;SDS011;11761;51.324;4.590;2022-11-14T04:03:11;12.23;;;6.93;;
23185;SDS011;11761;51.324;4.590;2022-11-14T04:05:37;11.73;;;7.20;;
23185;SDS011;11761;51.324;4.590;2022-11-14T04:08:04;15.10;;;7.32;;
23185;SDS011;11761;51.324;4.590;2022-11-14T04:10:31;13.68;;;7.97;;
23185;SDS011;11761;51.324;4.590;2022-11-14T04:12:57;14.13;;;7.97;;
23185;SDS011;11761;51.324;4.590;2022-11-14T04:15:23;14.07;;;7.65;;
23185;SDS011;11761;51.324;4.590;2022-11-14T04:17:49;12.35;;;7.32;;
23185;SDS011;11761;51.324;4.590;2022-11-14T04:20:16;11.93;;;7.53;;
23185;SDS011;11761;51.324;4.590;2022-11-14T04:22:42;16.15;;;8.00;;
23185;SDS011;11761;51.324;4.590;2022-11-14T04:25:08;13.90;;;7.68;;
23185;SDS011;11761;51.324;4.590;2022-11-14T04:27:34;12.73;;;7.32;;
23185;SDS011;11761;51.324;4.590;2022-11-14T04:30:01;12.02;;;6.93;;
23185;SDS011;11761;51.324;4.590;2022-11-14T04:32:27;13.60;;;8.13;;
23185;SDS011;11761;51.324;4.590;2022-11-14T04:34:53;12.55;;;7.32;;
23185;SDS011;11761;51.324;4.590;2022-11-14T04:37:19;15.07;;;8.93;;
23185;SDS011;11761;51.324;4.590;2022-11-14T04:39:45;13.05;;;7.28;;
23185;SDS011;11761;51.324;4.590;2022-11-14T04:42:11;10.45;;;6.38;;
23185;SDS011;11761;51.324;4.590;2022-11-14T04:44:38;10.65;;;7.15;;
23185;SDS011;11761;51.324;4.590;2022-11-14T04:47:04;14.23;;;8.20;;
23185;SDS011;11761;51.324;4.590;2022-11-14T04:49:30;13.88;;;7.72;;
23185;SDS011;11761;51.324;4.590;2022-11-14T04:51:56;14.18;;;7.72;;
23185;SDS011;11761;51.324;4.590;2022-11-14T04:54:22;12.63;;;6.65;;
23185;SDS011;11761;51.324;4.590;2022-11-14T04:56:48;13.13;;;7.28;;
23185;SDS011;11761;51.324;4.590;2022-11-14T04:59:14;13.40;;;7.25;;
23185;SDS011;11761;51.324;4.590;2022-11-14T05:01:40;14.23;;;8.15;;
23185;SDS011;11761;51.324;4.590;2022-11-14T05:04:07;15.30;;;8.75;;
23185;SDS011;11761;51.324;4.590;2022-11-14T05:06:33;10.65;;;6.30;;
23185;SDS011;11761;51.324;4.590;2022-11-14T05:08:59;11.27;;;7.32;;
23185;SDS011;11761;51.324;4.590;2022-11-14T05:11:25;10.40;;;6.75;;
23185;SDS011;11761;51.324;4.590;2022-11-14T05:13:51;11.85;;;7.70;;
23185;SDS011;11761;51.324;4.590;2022-11-14T05:16:17;10.68;;;6.93;;
23185;SDS011;11761;51.324;4.590;2022-11-14T05:18:43;10.30;;;6.72;;
23185;SDS011;11761;51.324;4.590;2022-11-14T05:21:11;13.98;;;8.23;;
23185;SDS011;11761;51.324;4.590;2022-11-14T05:23:39;13.15;;;7.70;;
23185;SDS011;11761;51.324;4.590;2022-11-14T05:26:09;12.85;;;7.97;;
23185;SDS011;11761;51.324;4.590;2022-11-14T05:28:39;11.05;;;7.18;;
23185;SDS011;11761;51.324;4.590;2022-11-14T05:31:06;13.60;;;7.40;;
23185;SDS011;11761;51.324;4.590;2022-11-14T05:33:34;12.63;;;7.10;;
23185;SDS011;11761;51.324;4.590;2022-11-14T05:36:03;12.50;;;7.40;;
23185;SDS011;11761;51.324;4.590;2022-11-14T05:38:31;9.32;;;5.93;;
23185;SDS011;11761;51.324;4.590;2022-11-14T05:40:58;13.23;;;7.38;;
23185;SDS011;11761;51.324;4.590;2022-11-14T05:43:24;12.13;;;6.80;;
23185;SDS011;11761;51.324;4.590;2022-11-14T05:45:57;9.68;;;6.32;;
23185;SDS011;11761;51.324;4.590;2022-11-14T05:48:25;13.48;;;7.18;;
23185;SDS011;11761;51.324;4.590;2022-11-14T05:50:55;11.88;;;7.15;;
23185;SDS011;11761;51.324;4.590;2022-11-14T05:53:21;10.90;;;7.10;;
23185;SDS011;11761;51.324;4.590;2022-11-14T05:55:48;13.38;;;7.55;;
23185;SDS011;11761;51.324;4.590;2022-11-14T05:58:14;11.77;;;7.05;;
23185;SDS011;11761;51.324;4.590;2022-11-14T06:00:40;12.55;;;6.65;;
23185;SDS011;11761;51.324;4.590;2022-11-14T06:03:06;15.60;;;7.82;;
23185;SDS011;11761;51.324;4.590;2022-11-14T06:05:33;12.00;;;6.78;;
23185;SDS011;11761;51.324;4.590;2022-11-14T06:08:00;13.88;;;7.90;;
23185;SDS011;11761;51.324;4.590;2022-11-14T06:10:27;10.95;;;6.85;;
23185;SDS011;11761;51.324;4.590;2022-11-14T06:12:53;12.27;;;7.28;;
23185;SDS011;11761;51.324;4.590;2022-11-14T06:15:20;10.27;;;6.47;;
23185;SDS011;11761;51.324;4.590;2022-11-14T06:17:46;13.13;;;7.05;;
23185;SDS011;11761;51.324;4.590;2022-11-14T06:20:12;9.02;;;6.43;;
23185;SDS011;11761;51.324;4.590;2022-11-14T06:22:40;12.25;;;6.70;;
23185;SDS011;11761;51.324;4.590;2022-11-14T06:25:07;11.13;;;7.03;;
23185;SDS011;11761;51.324;4.590;2022-11-14T06:27:33;11.63;;;6.65;;
23185;SDS011;11761;51.324;4.590;2022-11-14T06:29:59;11.40;;;6.82;;
23185;SDS011;11761;51.324;4.590;2022-11-14T06:32:26;12.68;;;6.75;;
23185;SDS011;11761;51.324;4.590;2022-11-14T06:34:52;12.43;;;7.18;;
23185;SDS011;11761;51.324;4.590;2022-11-14T06:37:18;11.68;;;6.35;;
23185;SDS011;11761;51.324;4.590;2022-11-14T06:39:44;9.82;;;6.30;;
23185;SDS011;11761;51.324;4.590;2022-11-14T06:42:10;10.48;;;6.30;;
23185;SDS011;11761;51.324;4.590;2022-11-14T06:44:36;10.63;;;6.72;;
23185;SDS011;11761;51.324;4.590;2022-11-14T06:47:02;16.00;;;7.88;;
23185;SDS011;11761;51.324;4.590;2022-11-14T06:49:28;11.52;;;6.80;;
23185;SDS011;11761;51.324;4.590;2022-11-14T06:51:54;10.23;;;6.35;;
23185;SDS011;11761;51.324;4.590;2022-11-14T06:54:20;13.02;;;7.35;;
23185;SDS011;11761;51.324;4.590;2022-11-14T06:56:47;9.32;;;6.50;;
23185;SDS011;11761;51.324;4.590;2022-11-14T06:59:13;11.45;;;6.70;;
23185;SDS011;11761;51.324;4.590;2022-11-14T07:01:39;11.13;;;6.22;;
23185;SDS011;11761;51.324;4.590;2022-11-14T07:04:05;9.38;;;6.13;;
23185;SDS011;11761;51.324;4.590;2022-11-14T07:06:31;13.10;;;6.32;;
23185;SDS011;11761;51.324;4.590;2022-11-14T07:08:57;12.13;;;7.03;;
23185;SDS011;11761;51.324;4.590;2022-11-14T07:11:25;14.80;;;6.65;;
23185;SDS011;11761;51.324;4.590;2022-11-14T07:13:54;10.82;;;6.72;;
23185;SDS011;11761;51.324;4.590;2022-11-14T07:16:23;12.93;;;7.70;;
23185;SDS011;11761;51.324;4.590;2022-11-14T07:18:54;15.82;;;8.45;;
23185;SDS011;11761;51.324;4.590;2022-11-14T07:21:21;24.30;;;12.70;;
23185;SDS011;11761;51.324;4.590;2022-11-14T07:23:47;25.08;;;15.93;;
23185;SDS011;11761;51.324;4.590;2022-11-14T07:26:14;15.18;;;8.85;;
23185;SDS011;11761;51.324;4.590;2022-11-14T07:28:41;13.20;;;8.60;;
23185;SDS011;11761;51.324;4.590;2022-11-14T07:31:08;13.50;;;7.15;;
23185;SDS011;11761;51.324;4.590;2022-11-14T07:33:37;14.77;;;6.90;;
23185;SDS011;11761;51.324;4.590;2022-11-14T07:36:04;10.20;;;6.68;;
23185;SDS011;11761;51.324;4.590;2022-11-14T07:38:30;9.68;;;6.15;;
23185;SDS011;11761;51.324;4.590;2022-11-14T07:40:58;11.70;;;6.78;;
23185;SDS011;11761;51.324;4.590;2022-11-14T07:43:26;11.45;;;6.95;;
23185;SDS011;11761;51.324;4.590;2022-11-14T07:45:53;15.68;;;8.80;;
23185;SDS011;11761;51.324;4.590;2022-11-14T07:48:23;17.90;;;9.77;;
23185;SDS011;11761;51.324;4.590;2022-11-14T07:50:49;19.45;;;10.77;;
23185;SDS011;11761;51.324;4.590;2022-11-14T07:53:15;22.42;;;13.05;;
23185;SDS011;11761;51.324;4.590;2022-11-14T07:55:42;18.70;;;10.85;;
23185;SDS011;11761;51.324;4.590;2022-11-14T07:58:08;12.65;;;7.82;;
23185;SDS011;11761;51.324;4.590;2022-11-14T08:00:34;11.50;;;7.30;;
23185;SDS011;11761;51.324;4.590;2022-11-14T08:03:01;13.80;;;7.57;;
23185;SDS011;11761;51.324;4.590;2022-11-14T08:05:27;13.15;;;7.30;;
23185;SDS011;11761;51.324;4.590;2022-11-14T08:07:53;12.52;;;7.65;;
23185;SDS011;11761;51.324;4.590;2022-11-14T08:10:19;14.25;;;7.38;;
23185;SDS011;11761;51.324;4.590;2022-11-14T08:12:45;12.90;;;8.23;;
23185;SDS011;11761;51.324;4.590;2022-11-14T08:15:12;14.30;;;8.23;;
23185;SDS011;11761;51.324;4.590;2022-11-14T08:17:39;14.88;;;7.53;;
23185;SDS011;11761;51.324;4.590;2022-11-14T08:20:05;12.95;;;7.25;;
23185;SDS011;11761;51.324;4.590;2022-11-14T08:22:33;12.55;;;8.15;;
23185;SDS011;11761;51.324;4.590;2022-11-14T08:24:59;13.80;;;8.05;;
23185;SDS011;11761;51.324;4.590;2022-11-14T08:27:25;26.83;;;15.90;;
23185;SDS011;11761;51.324;4.590;2022-11-14T08:29:51;24.05;;;10.45;;
23185;SDS011;11761;51.324;4.590;2022-11-14T08:32:18;15.98;;;9.68;;
23185;SDS011;11761;51.324;4.590;2022-11-14T08:34:44;18.25;;;10.60;;
23185;SDS011;11761;51.324;4.590;2022-11-14T08:37:10;15.90;;;9.38;;
23185;SDS011;11761;51.324;4.590;2022-11-14T08:39:36;18.88;;;10.20;;
23185;SDS011;11761;51.324;4.590;2022-11-14T08:42:02;16.65;;;9.95;;
23185;SDS011;11761;51.324;4.590;2022-11-14T08:44:29;17.58;;;9.85;;
23185;SDS011;11761;51.324;4.590;2022-11-14T08:46:55;15.80;;;8.95;;
23185;SDS011;11761;51.324;4.590;2022-11-14T08:49:21;17.60;;;9.98;;
23185;SDS011;11761;51.324;4.590;2022-11-14T08:51:47;14.15;;;8.80;;
23185;SDS011;11761;51.324;4.590;2022-11-14T08:54:16;15.85;;;8.82;;
23185;SDS011;11761;51.324;4.590;2022-11-14T08:56:42;16.95;;;9.20;;
23185;SDS011;11761;51.324;4.590;2022-11-14T08:59:08;14.30;;;9.50;;
23185;SDS011;11761;51.324;4.590;2022-11-14T09:01:34;16.25;;;8.73;;
23185;SDS011;11761;51.324;4.590;2022-11-14T09:04:00;13.65;;;8.43;;
23185;SDS011;11761;51.324;4.590;2022-11-14T09:06:26;16.90;;;9.25;;
23185;SDS011;11761;51.324;4.590;2022-11-14T09:08:53;16.02;;;9.00;;
23185;SDS011;11761;51.324;4.590;2022-11-14T09:11:19;15.23;;;9.07;;
23185;SDS011;11761;51.324;4.590;2022-11-14T09:13:45;16.95;;;9.40;;
23185;SDS011;11761;51.324;4.590;2022-11-14T09:16:11;14.68;;;8.27;;
23185;SDS011;11761;51.324;4.590;2022-11-14T09:18:38;15.98;;;9.05;;
23185;SDS011;11761;51.324;4.590;2022-11-14T09:21:05;14.07;;;8.52;;
23185;SDS011;11761;51.324;4.590;2022-11-14T09:23:32;14.35;;;8.93;;
23185;SDS011;11761;51.324;4.590;2022-11-14T09:26:05;19.27;;;10.18;;
23185;SDS011;11761;51.324;4.590;2022-11-14T09:28:33;17.60;;;9.88;;
23185;SDS011;11761;51.324;4.590;2022-11-14T09:31:03;14.35;;;8.77;;
23185;SDS011;11761;51.324;4.590;2022-11-14T09:33:32;11.88;;;8.57;;
23185;SDS011;11761;51.324;4.590;2022-11-14T09:35:59;15.60;;;9.90;;
23185;SDS011;11761;51.324;4.590;2022-11-14T09:38:31;14.88;;;9.18;;
23185;SDS011;11761;51.324;4.590;2022-11-14T09:46:23;15.80;;;9.50;;
23185;SDS011;11761;51.324;4.590;2022-11-14T09:48:52;18.77;;;9.35;;
23185;SDS011;11761;51.324;4.590;2022-11-14T09:51:19;12.88;;;8.70;;
23185;SDS011;11761;51.324;4.590;2022-11-14T09:53:50;17.60;;;10.05;;
23185;SDS011;11761;51.324;4.590;2022-11-14T09:56:24;16.02;;;9.68;;
23185;SDS011;11761;51.324;4.590;2022-11-14T09:58:52;17.08;;;10.13;;
23185;SDS011;11761;51.324;4.590;2022-11-14T10:04:29;16.88;;;9.73;;
23185;SDS011;11761;51.324;4.590;2022-11-14T10:10:02;16.23;;;9.70;;
23185;SDS011;11761;51.324;4.590;2022-11-14T10:12:42;16.38;;;9.70;;
23185;SDS011;11761;51.324;4.590;2022-11-14T10:20:32;20.30;;;10.80;;
23185;SDS011;11761;51.324;4.590;2022-11-14T10:34:32;20.00;;;10.98;;
23185;SDS011;11761;51.324;4.590;2022-11-14T10:37:21;19.60;;;10.98;;
23185;SDS011;11761;51.324;4.590;2022-11-14T10:43:04;18.63;;;10.88;;
23185;SDS011;11761;51.324;4.590;2022-11-14T10:45:44;15.50;;;9.25;;
23185;SDS011;11761;51.324;4.590;2022-11-14T10:48:15;17.45;;;8.80;;
23185;SDS011;11761;51.324;4.590;2022-11-14T10:50:57;16.10;;;9.40;;
23185;SDS011;11761;51.324;4.590;2022-11-14T10:56:18;12.50;;;7.47;;
23185;SDS011;11761;51.324;4.590;2022-11-14T10:58:44;12.82;;;7.57;;
23185;SDS011;11761;51.324;4.590;2022-11-14T11:09:32;13.05;;;8.25;;
23185;SDS011;11761;51.324;4.590;2022-11-14T11:15:15;12.32;;;8.00;;
23185;SDS011;11761;51.324;4.590;2022-11-14T11:17:54;13.68;;;7.80;;
23185;SDS011;11761;51.324;4.590;2022-11-14T11:25:32;11.27;;;6.93;;
23185;SDS011;11761;51.324;4.590;2022-11-14T11:28:15;11.68;;;7.55;;
23185;SDS011;11761;51.324;4.590;2022-11-14T11:30:58;14.27;;;7.53;;
23185;SDS011;11761;51.324;4.590;2022-11-14T11:33:32;10.38;;;6.68;;
23185;SDS011;11761;51.324;4.590;2022-11-14T11:36:01;10.52;;;6.75;;
23185;SDS011;11761;51.324;4.590;2022-11-14T11:38:47;11.95;;;6.30;;
23185;SDS011;11761;51.324;4.590;2022-11-14T11:43:59;12.05;;;6.75;;
23185;SDS011;11761;51.324;4.590;2022-11-14T11:46:30;10.80;;;6.22;;
23185;SDS011;11761;51.324;4.590;2022-11-14T11:49:42;10.40;;;6.18;;
23185;SDS011;11761;51.324;4.590;2022-11-14T11:52:22;9.20;;;5.95;;
23185;SDS011;11761;51.324;4.590;2022-11-14T11:57:37;11.48;;;6.53;;
23185;SDS011;11761;51.324;4.590;2022-11-14T12:02:43;9.20;;;5.93;;
23185;SDS011;11761;51.324;4.590;2022-11-14T12:05:15;10.75;;;6.25;;
23185;SDS011;11761;51.324;4.590;2022-11-14T12:08:03;9.80;;;6.15;;
23185;SDS011;11761;51.324;4.590;2022-11-14T12:10:50;8.23;;;5.72;;
23185;SDS011;11761;51.324;4.590;2022-11-14T12:30:18;10.18;;;5.70;;
23185;SDS011;11761;51.324;4.590;2022-11-14T12:35:24;11.02;;;6.90;;
23185;SDS011;11761;51.324;4.590;2022-11-14T12:37:54;10.50;;;6.40;;
23185;SDS011;11761;51.324;4.590;2022-11-14T12:42:53;10.23;;;6.30;;
23185;SDS011;11761;51.324;4.590;2022-11-14T12:48:21;10.05;;;5.90;;
23185;SDS011;11761;51.324;4.590;2022-11-14T12:50:51;10.73;;;6.50;;
23185;SDS011;11761;51.324;4.590;2022-11-14T13:12:37;9.27;;;6.18;;
23185;SDS011;11761;51.324;4.590;2022-11-14T13:15:26;9.82;;;6.10;;
23185;SDS011;11761;51.324;4.590;2022-11-14T13:21:01;10.70;;;6.20;;
23185;SDS011;11761;51.324;4.590;2022-11-14T13:23:59;8.18;;;5.45;;
23185;SDS011;11761;51.324;4.590;2022-11-14T13:28:52;9.73;;;6.45;;
23185;SDS011;11761;51.324;4.590;2022-11-14T13:31:19;11.48;;;6.00;;
23185;SDS011;11761;51.324;4.590;2022-11-14T13:33:46;10.35;;;6.00;;
23185;SDS011;11761;51.324;4.590;2022-11-14T13:50:10;9.27;;;5.57;;
23185;SDS011;11761;51.324;4.590;2022-11-14T13:55:16;8.45;;;5.43;;
23185;SDS011;11761;51.324;4.590;2022-11-14T14:00:21;8.55;;;5.22;;
23185;SDS011;11761;51.324;4.590;2022-11-14T14:16:33;10.13;;;5.95;;
23185;SDS011;11761;51.324;4.590;2022-11-14T14:21:46;10.13;;;5.93;;
23185;SDS011;11761;51.324;4.590;2022-11-14T14:24:27;10.13;;;5.78;;
23185;SDS011;11761;51.324;4.590;2022-11-14T14:27:15;9.77;;;6.18;;
23185;SDS011;11761;51.324;4.590;2022-11-14T14:29:46;11.93;;;7.18;;
23185;SDS011;11761;51.324;4.590;2022-11-14T14:32:37;12.50;;;7.45;;
23185;SDS011;11761;51.324;4.590;2022-11-14T14:35:37;10.10;;;5.85;;
23185;SDS011;11761;51.324;4.590;2022-11-14T14:37:57;15.40;;;6.78;;
23185;SDS011;11761;51.324;4.590;2022-11-14T14:43:00;12.23;;;6.53;;
23185;SDS011;11761;51.324;4.590;2022-11-14T14:45:29;12.70;;;7.00;;
23185;SDS011;11761;51.324;4.590;2022-11-14T14:48:21;12.13;;;6.63;;
23185;SDS011;11761;51.324;4.590;2022-11-14T14:50:52;12.05;;;6.78;;
23185;SDS011;11761;51.324;4.590;2022-11-14T14:55:57;15.63;;;9.45;;
23185;SDS011;11761;51.324;4.590;2022-11-14T14:58:28;14.60;;;7.25;;
23185;SDS011;11761;51.324;4.590;2022-11-14T15:00:58;14.30;;;6.97;;
23185;SDS011;11761;51.324;4.590;2022-11-14T15:03:35;14.82;;;7.38;;
23185;SDS011;11761;51.324;4.590;2022-11-14T15:09:23;13.43;;;7.28;;
23185;SDS011;11761;51.324;4.590;2022-11-14T15:11:52;12.40;;;7.20;;
23185;SDS011;11761;51.324;4.590;2022-11-14T15:14:25;13.00;;;7.53;;
23185;SDS011;11761;51.324;4.590;2022-11-14T15:16:56;13.80;;;7.95;;
23185;SDS011;11761;51.324;4.590;2022-11-14T15:19:25;14.07;;;8.38;;
23185;SDS011;11761;51.324;4.590;2022-11-14T15:24:40;13.32;;;7.32;;
23185;SDS011;11761;51.324;4.590;2022-11-14T15:27:16;14.63;;;8.18;;
23185;SDS011;11761;51.324;4.590;2022-11-14T15:29:49;14.30;;;8.30;;
23185;SDS011;11761;51.324;4.590;2022-11-14T15:32:18;12.20;;;7.18;;
23185;SDS011;11761;51.324;4.590;2022-11-14T15:40:29;14.90;;;8.85;;
23185;SDS011;11761;51.324;4.590;2022-11-14T15:42:56;17.65;;;8.82;;
23185;SDS011;11761;51.324;4.590;2022-11-14T15:45:24;16.63;;;9.18;;
23185;SDS011;11761;51.324;4.590;2022-11-14T15:47:56;28.33;;;13.57;;
23185;SDS011;11761;51.324;4.590;2022-11-14T15:50:35;19.33;;;9.15;;
23185;SDS011;11761;51.324;4.590;2022-11-14T15:53:05;15.57;;;8.82;;
23185;SDS011;11761;51.324;4.590;2022-11-14T15:55:40;15.60;;;8.52;;
23185;SDS011;11761;51.324;4.590;2022-11-14T15:58:07;17.88;;;9.63;;
23185;SDS011;11761;51.324;4.590;2022-11-14T16:00:35;14.85;;;8.55;;
23185;SDS011;11761;51.324;4.590;2022-11-14T16:03:08;15.65;;;8.73;;
23185;SDS011;11761;51.324;4.590;2022-11-14T16:08:02;18.40;;;10.63;;
23185;SDS011;11761;51.324;4.590;2022-11-14T16:10:28;17.58;;;9.68;;
23185;SDS011;11761;51.324;4.590;2022-11-14T16:12:56;18.13;;;9.35;;
23185;SDS011;11761;51.324;4.590;2022-11-14T16:15:22;17.92;;;9.43;;
23185;SDS011;11761;51.324;4.590;2022-11-14T16:17:48;14.18;;;8.48;;
23185;SDS011;11761;51.324;4.590;2022-11-14T16:20:16;17.05;;;9.23;;
23185;SDS011;11761;51.324;4.590;2022-11-14T16:22:44;19.85;;;8.82;;
23185;SDS011;11761;51.324;4.590;2022-11-14T16:25:15;17.73;;;9.23;;
23185;SDS011;11761;51.324;4.590;2022-11-14T16:27:51;20.48;;;10.13;;
23185;SDS011;11761;51.324;4.590;2022-11-14T16:30:18;21.75;;;10.32;;
23185;SDS011;11761;51.324;4.590;2022-11-14T16:32:46;21.02;;;9.98;;
23185;SDS011;11761;51.324;4.590;2022-11-14T16:35:24;18.33;;;10.43;;
23185;SDS011;11761;51.324;4.590;2022-11-14T16:37:53;19.33;;;10.07;;
23185;SDS011;11761;51.324;4.590;2022-11-14T16:40:23;18.10;;;9.10;;
23185;SDS011;11761;51.324;4.590;2022-11-14T16:42:56;18.73;;;9.75;;
23185;SDS011;11761;51.324;4.590;2022-11-14T16:45:23;19.00;;;9.63;;
23185;SDS011;11761;51.324;4.590;2022-11-14T16:47:51;19.52;;;9.15;;
23185;SDS011;11761;51.324;4.590;2022-11-14T16:50:17;18.00;;;9.00;;
23185;SDS011;11761;51.324;4.590;2022-11-14T16:52:44;19.25;;;9.93;;
23185;SDS011;11761;51.324;4.590;2022-11-14T16:55:10;19.23;;;8.90;;
23185;SDS011;11761;51.324;4.590;2022-11-14T16:57:37;18.80;;;10.27;;
23185;SDS011;11761;51.324;4.590;2022-11-14T17:00:04;17.35;;;9.38;;
23185;SDS011;11761;51.324;4.590;2022-11-14T17:02:32;21.50;;;10.98;;
23185;SDS011;11761;51.324;4.590;2022-11-14T17:04:58;20.05;;;10.68;;
23185;SDS011;11761;51.324;4.590;2022-11-14T17:07:24;21.90;;;10.85;;
23185;SDS011;11761;51.324;4.590;2022-11-14T17:09:50;23.92;;;11.43;;
23185;SDS011;11761;51.324;4.590;2022-11-14T17:12:16;22.40;;;11.07;;
23185;SDS011;11761;51.324;4.590;2022-11-14T17:14:42;24.13;;;11.25;;
23185;SDS011;11761;51.324;4.590;2022-11-14T17:17:08;28.77;;;12.60;;
23185;SDS011;11761;51.324;4.590;2022-11-14T17:19:34;28.00;;;13.00;;
23185;SDS011;11761;51.324;4.590;2022-11-14T17:22:03;27.42;;;13.38;;
23185;SDS011;11761;51.324;4.590;2022-11-14T17:24:29;24.88;;;12.57;;
23185;SDS011;11761;51.324;4.590;2022-11-14T17:26:55;23.85;;;11.98;;